sensor_id;sensor_type;location;lat;lon;timestamp;P1;durP1;ratioP1;P2;durP2;ratioP2
39448;SDS011;25151;45.566;9.382;2023-02-01T00:00:58;7.15;;;5.22;;
39448;SDS011;25151;45.566;9.382;2023-02-01T00:03:58;8.40;;;5.13;;
39448;SDS011;25151;45.566;9.382;2023-02-01T00:06:59;7.40;;;5.47;;
39448;SDS011;25151;45.566;9.382;2023-02-01T00:10:00;7.13;;;5.43;;
39448;SDS011;25151;45.566;9.382;2023-02-01T00:13:01;7.93;;;5.10;;
39448;SDS011;25151;45.566;9.382;2023-02-01T00:16:02;7.88;;;5.95;;
39448;SDS011;25151;45.566;9.382;2023-02-01T00:19:10;6.93;;;5.32;;
39448;SDS011;25151;45.566;9.382;2023-02-01T00:22:14;7.18;;;5.28;;
39448;SDS011;25151;45.566;9.382;2023-02-01T00:25:14;8.27;;;5.90;;
39448;SDS011;25151;45.566;9.382;2023-02-01T00:28:15;6.88;;;5.45;;
39448;SDS011;25151;45.566;9.382;2023-02-01T00:31:15;8.13;;;5.43;;
39448;SDS011;25151;45.566;9.382;2023-02-01T00:34:16;10.52;;;5.47;;
39448;SDS011;25151;45.566;9.382;2023-02-01T00:37:17;7.40;;;6.10;;
39448;SDS011;25151;45.566;9.382;2023-02-01T00:40:18;8.98;;;6.43;;
39448;SDS011;25151;45.566;9.382;2023-02-01T00:43:19;6.80;;;5.75;;
39448;SDS011;25151;45.566;9.382;2023-02-01T00:46:19;9.45;;;5.95;;
39448;SDS011;25151;45.566;9.382;2023-02-01T00:49:21;7.25;;;5.55;;
39448;SDS011;25151;45.566;9.382;2023-02-01T00:52:25;8.75;;;6.55;;
39448;SDS011;25151;45.566;9.382;2023-02-01T00:55:25;6.97;;;5.95;;
39448;SDS011;25151;45.566;9.382;2023-02-01T00:58:26;8.55;;;6.38;;
39448;SDS011;25151;45.566;9.382;2023-02-01T01:01:28;7.53;;;6.20;;
39448;SDS011;25151;45.566;9.382;2023-02-01T01:04:28;6.65;;;5.60;;
39448;SDS011;25151;45.566;9.382;2023-02-01T01:07:29;7.75;;;5.95;;
39448;SDS011;25151;45.566;9.382;2023-02-01T01:10:29;7.65;;;6.07;;
39448;SDS011;25151;45.566;9.382;2023-02-01T01:13:30;6.97;;;5.95;;
39448;SDS011;25151;45.566;9.382;2023-02-01T01:16:31;9.05;;;6.50;;
39448;SDS011;25151;45.566;9.382;2023-02-01T01:19:32;6.80;;;6.10;;
39448;SDS011;25151;45.566;9.382;2023-02-01T01:22:33;7.88;;;6.50;;
39448;SDS011;25151;45.566;9.382;2023-02-01T01:25:39;7.60;;;6.47;;
39448;SDS011;25151;45.566;9.382;2023-02-01T01:28:40;8.50;;;5.97;;
39448;SDS011;25151;45.566;9.382;2023-02-01T01:31:40;10.63;;;6.38;;
39448;SDS011;25151;45.566;9.382;2023-02-01T01:34:41;8.77;;;6.50;;
39448;SDS011;25151;45.566;9.382;2023-02-01T01:37:42;8.13;;;5.95;;
39448;SDS011;25151;45.566;9.382;2023-02-01T01:40:45;8.13;;;6.25;;
39448;SDS011;25151;45.566;9.382;2023-02-01T01:43:57;8.88;;;6.10;;
39448;SDS011;25151;45.566;9.382;2023-02-01T01:46:59;7.18;;;5.75;;
39448;SDS011;25151;45.566;9.382;2023-02-01T01:50:00;7.57;;;6.05;;
39448;SDS011;25151;45.566;9.382;2023-02-01T01:53:03;8.73;;;6.47;;
39448;SDS011;25151;45.566;9.382;2023-02-01T01:56:05;8.00;;;6.03;;
39448;SDS011;25151;45.566;9.382;2023-02-01T01:59:06;6.50;;;5.55;;
39448;SDS011;25151;45.566;9.382;2023-02-01T02:02:09;9.13;;;6.40;;
39448;SDS011;25151;45.566;9.382;2023-02-01T02:05:10;8.13;;;5.97;;
39448;SDS011;25151;45.566;9.382;2023-02-01T02:08:12;7.78;;;6.03;;
39448;SDS011;25151;45.566;9.382;2023-02-01T02:11:14;9.18;;;6.32;;
39448;SDS011;25151;45.566;9.382;2023-02-01T02:14:17;8.38;;;6.35;;
39448;SDS011;25151;45.566;9.382;2023-02-01T02:17:33;7.00;;;5.85;;
39448;SDS011;25151;45.566;9.382;2023-02-01T02:24:20;7.80;;;5.95;;
39448;SDS011;25151;45.566;9.382;2023-02-01T02:34:38;9.15;;;6.10;;
39448;SDS011;25151;45.566;9.382;2023-02-01T02:38:00;9.15;;;5.32;;
39448;SDS011;25151;45.566;9.382;2023-02-01T02:41:27;7.30;;;5.82;;
39448;SDS011;25151;45.566;9.382;2023-02-01T02:45:23;7.32;;;6.15;;
39448;SDS011;25151;45.566;9.382;2023-02-01T02:52:15;7.05;;;6.13;;
39448;SDS011;25151;45.566;9.382;2023-02-01T02:55:38;7.18;;;5.78;;
39448;SDS011;25151;45.566;9.382;2023-02-01T02:58:40;6.72;;;5.75;;
39448;SDS011;25151;45.566;9.382;2023-02-01T03:02:02;7.75;;;5.93;;
39448;SDS011;25151;45.566;9.382;2023-02-01T03:05:21;6.97;;;5.68;;
39448;SDS011;25151;45.566;9.382;2023-02-01T03:08:22;8.05;;;5.88;;
39448;SDS011;25151;45.566;9.382;2023-02-01T03:11:28;9.88;;;7.00;;
39448;SDS011;25151;45.566;9.382;2023-02-01T03:14:50;6.95;;;5.82;;
39448;SDS011;25151;45.566;9.382;2023-02-01T03:17:54;8.68;;;6.30;;
39448;SDS011;25151;45.566;9.382;2023-02-01T03:20:56;7.00;;;5.65;;
39448;SDS011;25151;45.566;9.382;2023-02-01T03:24:05;7.63;;;6.32;;
39448;SDS011;25151;45.566;9.382;2023-02-01T03:30:37;6.32;;;5.50;;
39448;SDS011;25151;45.566;9.382;2023-02-01T03:33:42;7.32;;;5.65;;
39448;SDS011;25151;45.566;9.382;2023-02-01T03:36:50;8.10;;;6.57;;
39448;SDS011;25151;45.566;9.382;2023-02-01T03:40:01;7.25;;;5.22;;
39448;SDS011;25151;45.566;9.382;2023-02-01T03:43:07;6.40;;;5.73;;
39448;SDS011;25151;45.566;9.382;2023-02-01T03:46:14;7.22;;;6.22;;
39448;SDS011;25151;45.566;9.382;2023-02-01T03:49:34;7.07;;;6.28;;
39448;SDS011;25151;45.566;9.382;2023-02-01T03:52:45;7.70;;;6.55;;
39448;SDS011;25151;45.566;9.382;2023-02-01T03:55:50;8.13;;;6.55;;
39448;SDS011;25151;45.566;9.382;2023-02-01T03:58:53;6.20;;;5.32;;
39448;SDS011;25151;45.566;9.382;2023-02-01T04:01:59;8.68;;;6.22;;
39448;SDS011;25151;45.566;9.382;2023-02-01T04:05:00;7.65;;;5.80;;
39448;SDS011;25151;45.566;9.382;2023-02-01T04:08:00;7.70;;;5.72;;
39448;SDS011;25151;45.566;9.382;2023-02-01T04:11:01;7.75;;;5.68;;
39448;SDS011;25151;45.566;9.382;2023-02-01T04:14:01;6.47;;;5.72;;
39448;SDS011;25151;45.566;9.382;2023-02-01T04:17:04;6.78;;;6.07;;
39448;SDS011;25151;45.566;9.382;2023-02-01T04:20:05;6.10;;;5.47;;
39448;SDS011;25151;45.566;9.382;2023-02-01T04:23:05;7.50;;;5.57;;
39448;SDS011;25151;45.566;9.382;2023-02-01T04:26:06;7.55;;;6.55;;
39448;SDS011;25151;45.566;9.382;2023-02-01T04:29:08;7.70;;;6.18;;
39448;SDS011;25151;45.566;9.382;2023-02-01T04:32:09;6.20;;;5.60;;
39448;SDS011;25151;45.566;9.382;2023-02-01T04:35:10;7.15;;;5.88;;
39448;SDS011;25151;45.566;9.382;2023-02-01T04:38:11;8.30;;;6.18;;
39448;SDS011;25151;45.566;9.382;2023-02-01T04:41:12;7.53;;;6.20;;
39448;SDS011;25151;45.566;9.382;2023-02-01T04:44:13;6.78;;;5.65;;
39448;SDS011;25151;45.566;9.382;2023-02-01T04:47:15;7.97;;;5.80;;
39448;SDS011;25151;45.566;9.382;2023-02-01T04:50:16;7.68;;;6.03;;
39448;SDS011;25151;45.566;9.382;2023-02-01T04:53:16;7.00;;;6.10;;
39448;SDS011;25151;45.566;9.382;2023-02-01T04:56:17;6.55;;;5.85;;
39448;SDS011;25151;45.566;9.382;2023-02-01T04:59:18;7.57;;;5.85;;
39448;SDS011;25151;45.566;9.382;2023-02-01T05:02:19;7.07;;;5.72;;
39448;SDS011;25151;45.566;9.382;2023-02-01T05:05:19;6.82;;;5.70;;
39448;SDS011;25151;45.566;9.382;2023-02-01T05:11:22;7.25;;;5.32;;
39448;SDS011;25151;45.566;9.382;2023-02-01T05:14:41;7.30;;;5.65;;
39448;SDS011;25151;45.566;9.382;2023-02-01T05:17:41;8.20;;;6.25;;
39448;SDS011;25151;45.566;9.382;2023-02-01T05:20:42;8.20;;;6.25;;
39448;SDS011;25151;45.566;9.382;2023-02-01T05:23:43;6.18;;;5.55;;
39448;SDS011;25151;45.566;9.382;2023-02-01T05:27:02;7.10;;;6.00;;
39448;SDS011;25151;45.566;9.382;2023-02-01T05:30:03;7.05;;;5.65;;
39448;SDS011;25151;45.566;9.382;2023-02-01T05:33:05;7.45;;;5.88;;
39448;SDS011;25151;45.566;9.382;2023-02-01T05:36:05;7.32;;;5.90;;
39448;SDS011;25151;45.566;9.382;2023-02-01T05:39:06;6.28;;;5.55;;
39448;SDS011;25151;45.566;9.382;2023-02-01T05:42:07;6.45;;;5.47;;
39448;SDS011;25151;45.566;9.382;2023-02-01T05:45:07;6.95;;;5.90;;
39448;SDS011;25151;45.566;9.382;2023-02-01T05:48:08;7.82;;;6.13;;
39448;SDS011;25151;45.566;9.382;2023-02-01T05:51:09;6.30;;;5.20;;
39448;SDS011;25151;45.566;9.382;2023-02-01T05:54:11;6.88;;;5.32;;
39448;SDS011;25151;45.566;9.382;2023-02-01T05:57:11;6.10;;;5.45;;
39448;SDS011;25151;45.566;9.382;2023-02-01T06:00:13;6.57;;;5.28;;
39448;SDS011;25151;45.566;9.382;2023-02-01T06:03:13;6.95;;;5.85;;
39448;SDS011;25151;45.566;9.382;2023-02-01T06:06:14;8.68;;;5.97;;
39448;SDS011;25151;45.566;9.382;2023-02-01T06:09:15;7.05;;;5.10;;
39448;SDS011;25151;45.566;9.382;2023-02-01T06:12:15;6.72;;;5.75;;
39448;SDS011;25151;45.566;9.382;2023-02-01T06:15:16;9.57;;;5.75;;
39448;SDS011;25151;45.566;9.382;2023-02-01T06:18:17;7.18;;;5.88;;
39448;SDS011;25151;45.566;9.382;2023-02-01T06:21:18;7.03;;;5.38;;
39448;SDS011;25151;45.566;9.382;2023-02-01T06:24:23;8.13;;;5.43;;
39448;SDS011;25151;45.566;9.382;2023-02-01T06:27:24;6.88;;;5.03;;
39448;SDS011;25151;45.566;9.382;2023-02-01T06:30:25;8.13;;;5.72;;
39448;SDS011;25151;45.566;9.382;2023-02-01T06:33:26;7.03;;;5.35;;
39448;SDS011;25151;45.566;9.382;2023-02-01T06:36:27;17.48;;;5.90;;
39448;SDS011;25151;45.566;9.382;2023-02-01T06:39:29;7.22;;;5.22;;
39448;SDS011;25151;45.566;9.382;2023-02-01T06:42:29;10.35;;;5.55;;
39448;SDS011;25151;45.566;9.382;2023-02-01T06:45:31;6.28;;;5.03;;
39448;SDS011;25151;45.566;9.382;2023-02-01T06:48:32;8.13;;;4.88;;
39448;SDS011;25151;45.566;9.382;2023-02-01T06:51:33;5.75;;;4.97;;
39448;SDS011;25151;45.566;9.382;2023-02-01T06:54:33;8.90;;;5.03;;
39448;SDS011;25151;45.566;9.382;2023-02-01T06:57:37;8.15;;;5.15;;
39448;SDS011;25151;45.566;9.382;2023-02-01T07:00:37;9.05;;;5.03;;
39448;SDS011;25151;45.566;9.382;2023-02-01T07:03:38;9.65;;;5.47;;
39448;SDS011;25151;45.566;9.382;2023-02-01T07:06:40;6.75;;;5.28;;
39448;SDS011;25151;45.566;9.382;2023-02-01T07:09:41;6.30;;;5.00;;
39448;SDS011;25151;45.566;9.382;2023-02-01T07:12:41;5.68;;;4.72;;
39448;SDS011;25151;45.566;9.382;2023-02-01T07:15:42;6.93;;;5.15;;
39448;SDS011;25151;45.566;9.382;2023-02-01T07:18:43;7.75;;;5.13;;
39448;SDS011;25151;45.566;9.382;2023-02-01T07:21:44;6.10;;;5.05;;
39448;SDS011;25151;45.566;9.382;2023-02-01T07:24:44;7.70;;;5.35;;
39448;SDS011;25151;45.566;9.382;2023-02-01T07:27:45;5.90;;;5.28;;
39448;SDS011;25151;45.566;9.382;2023-02-01T07:30:46;6.43;;;4.97;;
39448;SDS011;25151;45.566;9.382;2023-02-01T07:33:50;7.55;;;6.10;;
39448;SDS011;25151;45.566;9.382;2023-02-01T07:36:55;13.57;;;5.20;;
39448;SDS011;25151;45.566;9.382;2023-02-01T07:39:55;5.70;;;4.88;;
39448;SDS011;25151;45.566;9.382;2023-02-01T07:42:56;5.95;;;4.88;;
39448;SDS011;25151;45.566;9.382;2023-02-01T07:45:57;6.20;;;5.20;;
39448;SDS011;25151;45.566;9.382;2023-02-01T07:48:58;6.53;;;5.22;;
39448;SDS011;25151;45.566;9.382;2023-02-01T07:51:59;8.45;;;5.25;;
39448;SDS011;25151;45.566;9.382;2023-02-01T07:54:59;7.32;;;5.50;;
39448;SDS011;25151;45.566;9.382;2023-02-01T07:58:00;6.72;;;4.55;;
39448;SDS011;25151;45.566;9.382;2023-02-01T08:01:00;5.80;;;5.00;;
39448;SDS011;25151;45.566;9.382;2023-02-01T08:04:19;6.13;;;4.40;;
39448;SDS011;25151;45.566;9.382;2023-02-01T08:07:20;7.35;;;4.78;;
39448;SDS011;25151;45.566;9.382;2023-02-01T08:10:22;10.63;;;5.78;;
39448;SDS011;25151;45.566;9.382;2023-02-01T08:13:22;11.05;;;5.63;;
39448;SDS011;25151;45.566;9.382;2023-02-01T08:16:23;11.88;;;5.13;;
39448;SDS011;25151;45.566;9.382;2023-02-01T08:19:25;8.85;;;5.60;;
39448;SDS011;25151;45.566;9.382;2023-02-01T08:22:25;10.82;;;5.95;;
39448;SDS011;25151;45.566;9.382;2023-02-01T08:25:26;8.80;;;5.38;;
39448;SDS011;25151;45.566;9.382;2023-02-01T08:28:27;8.38;;;5.00;;
39448;SDS011;25151;45.566;9.382;2023-02-01T08:31:28;8.77;;;5.28;;
39448;SDS011;25151;45.566;9.382;2023-02-01T08:34:29;8.70;;;4.90;;
39448;SDS011;25151;45.566;9.382;2023-02-01T08:37:30;8.57;;;5.68;;
39448;SDS011;25151;45.566;9.382;2023-02-01T08:40:31;7.88;;;5.30;;
39448;SDS011;25151;45.566;9.382;2023-02-01T08:43:33;10.18;;;5.25;;
39448;SDS011;25151;45.566;9.382;2023-02-01T08:46:33;8.23;;;4.88;;
39448;SDS011;25151;45.566;9.382;2023-02-01T08:49:34;7.88;;;5.20;;
39448;SDS011;25151;45.566;9.382;2023-02-01T08:52:35;8.55;;;5.22;;
39448;SDS011;25151;45.566;9.382;2023-02-01T08:55:35;7.07;;;5.10;;
39448;SDS011;25151;45.566;9.382;2023-02-01T08:58:36;8.00;;;5.20;;
39448;SDS011;25151;45.566;9.382;2023-02-01T09:01:37;8.88;;;5.55;;
39448;SDS011;25151;45.566;9.382;2023-02-01T09:04:37;7.93;;;5.47;;
39448;SDS011;25151;45.566;9.382;2023-02-01T09:07:38;5.95;;;5.10;;
39448;SDS011;25151;45.566;9.382;2023-02-01T09:10:39;9.43;;;5.47;;
39448;SDS011;25151;45.566;9.382;2023-02-01T09:13:42;9.57;;;5.65;;
39448;SDS011;25151;45.566;9.382;2023-02-01T09:16:43;7.90;;;5.13;;
39448;SDS011;25151;45.566;9.382;2023-02-01T09:19:43;10.30;;;5.55;;
39448;SDS011;25151;45.566;9.382;2023-02-01T09:22:44;6.65;;;4.60;;
39448;SDS011;25151;45.566;9.382;2023-02-01T09:25:44;10.57;;;5.47;;
39448;SDS011;25151;45.566;9.382;2023-02-01T09:28:45;8.07;;;5.43;;
39448;SDS011;25151;45.566;9.382;2023-02-01T09:31:46;7.38;;;5.15;;
39448;SDS011;25151;45.566;9.382;2023-02-01T09:34:46;6.53;;;4.57;;
39448;SDS011;25151;45.566;9.382;2023-02-01T09:37:47;9.32;;;5.10;;
39448;SDS011;25151;45.566;9.382;2023-02-01T09:40:47;8.52;;;4.82;;
39448;SDS011;25151;45.566;9.382;2023-02-01T09:43:51;6.28;;;4.90;;
39448;SDS011;25151;45.566;9.382;2023-02-01T09:46:54;6.88;;;5.10;;
39448;SDS011;25151;45.566;9.382;2023-02-01T09:57:13;7.30;;;4.97;;
39448;SDS011;25151;45.566;9.382;2023-02-01T10:00:04;7.72;;;5.45;;
39448;SDS011;25151;45.566;9.382;2023-02-01T10:03:11;10.05;;;5.68;;
39448;SDS011;25151;45.566;9.382;2023-02-01T10:12:58;11.73;;;5.60;;
39448;SDS011;25151;45.566;9.382;2023-02-01T10:16:25;10.77;;;5.88;;
39448;SDS011;25151;45.566;9.382;2023-02-01T10:23:40;10.68;;;6.05;;
39448;SDS011;25151;45.566;9.382;2023-02-01T10:27:17;10.23;;;5.97;;
39448;SDS011;25151;45.566;9.382;2023-02-01T10:30:22;11.43;;;5.82;;
39448;SDS011;25151;45.566;9.382;2023-02-01T10:33:31;11.35;;;6.57;;
39448;SDS011;25151;45.566;9.382;2023-02-01T10:36:41;11.52;;;5.68;;
39448;SDS011;25151;45.566;9.382;2023-02-01T10:39:48;11.48;;;5.38;;
39448;SDS011;25151;45.566;9.382;2023-02-01T10:43:01;10.30;;;6.22;;
39448;SDS011;25151;45.566;9.382;2023-02-01T10:46:03;11.40;;;5.88;;
39448;SDS011;25151;45.566;9.382;2023-02-01T10:49:04;10.40;;;5.50;;
39448;SDS011;25151;45.566;9.382;2023-02-01T10:52:15;10.25;;;5.75;;
39448;SDS011;25151;45.566;9.382;2023-02-01T10:55:26;11.13;;;5.88;;
39448;SDS011;25151;45.566;9.382;2023-02-01T10:58:28;8.10;;;5.97;;
39448;SDS011;25151;45.566;9.382;2023-02-01T11:01:34;9.77;;;5.10;;
39448;SDS011;25151;45.566;9.382;2023-02-01T11:04:39;9.00;;;5.95;;
39448;SDS011;25151;45.566;9.382;2023-02-01T11:07:40;9.93;;;5.45;;
39448;SDS011;25151;45.566;9.382;2023-02-01T11:11:00;6.88;;;4.85;;
39448;SDS011;25151;45.566;9.382;2023-02-01T11:14:12;9.13;;;6.13;;
39448;SDS011;25151;45.566;9.382;2023-02-01T11:20:18;8.43;;;5.47;;
39448;SDS011;25151;45.566;9.382;2023-02-01T11:23:25;10.13;;;5.57;;
39448;SDS011;25151;45.566;9.382;2023-02-01T11:26:30;13.10;;;5.88;;
39448;SDS011;25151;45.566;9.382;2023-02-01T11:29:36;7.70;;;5.40;;
39448;SDS011;25151;45.566;9.382;2023-02-01T11:32:40;8.85;;;5.65;;
39448;SDS011;25151;45.566;9.382;2023-02-01T11:35:40;9.57;;;5.88;;
39448;SDS011;25151;45.566;9.382;2023-02-01T11:38:53;10.00;;;5.60;;
39448;SDS011;25151;45.566;9.382;2023-02-01T11:42:13;5.22;;;4.55;;
39448;SDS011;25151;45.566;9.382;2023-02-01T11:45:20;8.80;;;4.82;;
39448;SDS011;25151;45.566;9.382;2023-02-01T11:48:26;7.00;;;4.60;;
39448;SDS011;25151;45.566;9.382;2023-02-01T11:51:37;6.90;;;5.00;;
39448;SDS011;25151;45.566;9.382;2023-02-01T12:07:42;8.85;;;4.88;;
39448;SDS011;25151;45.566;9.382;2023-02-01T12:24:22;5.85;;;3.90;;
39448;SDS011;25151;45.566;9.382;2023-02-01T12:34:52;7.70;;;4.95;;
39448;SDS011;25151;45.566;9.382;2023-02-01T12:41:30;8.43;;;4.88;;
39448;SDS011;25151;45.566;9.382;2023-02-01T12:44:37;8.07;;;4.30;;
39448;SDS011;25151;45.566;9.382;2023-02-01T12:47:42;5.60;;;4.03;;
39448;SDS011;25151;45.566;9.382;2023-02-01T12:50:49;8.02;;;4.43;;
39448;SDS011;25151;45.566;9.382;2023-02-01T12:57:32;9.40;;;4.65;;
39448;SDS011;25151;45.566;9.382;2023-02-01T13:00:39;8.38;;;4.22;;
39448;SDS011;25151;45.566;9.382;2023-02-01T13:07:17;6.07;;;4.38;;
39448;SDS011;25151;45.566;9.382;2023-02-01T13:10:43;10.90;;;4.70;;
39448;SDS011;25151;45.566;9.382;2023-02-01T13:17:23;11.55;;;4.53;;
39448;SDS011;25151;45.566;9.382;2023-02-01T13:23:50;8.98;;;4.40;;
39448;SDS011;25151;45.566;9.382;2023-02-01T13:26:55;6.80;;;3.97;;
39448;SDS011;25151;45.566;9.382;2023-02-01T13:40:31;11.05;;;5.15;;
39448;SDS011;25151;45.566;9.382;2023-02-01T13:43:34;8.45;;;4.18;;
39448;SDS011;25151;45.566;9.382;2023-02-01T13:46:39;6.55;;;4.05;;
39448;SDS011;25151;45.566;9.382;2023-02-01T13:49:45;7.13;;;3.88;;
39448;SDS011;25151;45.566;9.382;2023-02-01T13:56:13;5.38;;;3.58;;
39448;SDS011;25151;45.566;9.382;2023-02-01T14:08:41;6.72;;;4.38;;
39448;SDS011;25151;45.566;9.382;2023-02-01T14:11:50;5.25;;;3.72;;
39448;SDS011;25151;45.566;9.382;2023-02-01T14:14:51;7.53;;;3.72;;
39448;SDS011;25151;45.566;9.382;2023-02-01T14:21:50;5.60;;;3.58;;
39448;SDS011;25151;45.566;9.382;2023-02-01T14:24:58;6.20;;;3.70;;
39448;SDS011;25151;45.566;9.382;2023-02-01T14:27:59;5.97;;;3.47;;
39448;SDS011;25151;45.566;9.382;2023-02-01T14:31:03;8.27;;;4.20;;
39448;SDS011;25151;45.566;9.382;2023-02-01T14:34:17;6.88;;;3.72;;
39448;SDS011;25151;45.566;9.382;2023-02-01T14:37:36;8.23;;;3.70;;
39448;SDS011;25151;45.566;9.382;2023-02-01T14:40:39;5.47;;;3.50;;
39448;SDS011;25151;45.566;9.382;2023-02-01T14:44:14;7.30;;;3.63;;
39448;SDS011;25151;45.566;9.382;2023-02-01T14:53:32;4.57;;;3.22;;
39448;SDS011;25151;45.566;9.382;2023-02-01T14:56:36;5.00;;;2.97;;
39448;SDS011;25151;45.566;9.382;2023-02-01T14:59:38;4.82;;;3.13;;
39448;SDS011;25151;45.566;9.382;2023-02-01T15:02:40;7.70;;;3.40;;
39448;SDS011;25151;45.566;9.382;2023-02-01T15:05:43;5.20;;;3.70;;
39448;SDS011;25151;45.566;9.382;2023-02-01T15:08:44;5.63;;;3.60;;
39448;SDS011;25151;45.566;9.382;2023-02-01T15:15:12;4.50;;;3.08;;
39448;SDS011;25151;45.566;9.382;2023-02-01T15:18:16;4.85;;;3.20;;
39448;SDS011;25151;45.566;9.382;2023-02-01T15:21:20;5.10;;;3.30;;
39448;SDS011;25151;45.566;9.382;2023-02-01T15:24:24;5.75;;;3.72;;
39448;SDS011;25151;45.566;9.382;2023-02-01T15:27:27;5.85;;;3.78;;
39448;SDS011;25151;45.566;9.382;2023-02-01T15:30:30;6.50;;;3.40;;
39448;SDS011;25151;45.566;9.382;2023-02-01T15:33:32;6.78;;;3.25;;
39448;SDS011;25151;45.566;9.382;2023-02-01T15:36:33;6.13;;;3.72;;
39448;SDS011;25151;45.566;9.382;2023-02-01T15:39:35;7.57;;;4.00;;
39448;SDS011;25151;45.566;9.382;2023-02-01T15:42:38;5.20;;;3.17;;
39448;SDS011;25151;45.566;9.382;2023-02-01T15:45:51;4.00;;;3.22;;
39448;SDS011;25151;45.566;9.382;2023-02-01T15:48:53;4.35;;;2.78;;
39448;SDS011;25151;45.566;9.382;2023-02-01T15:51:58;6.20;;;3.45;;
39448;SDS011;25151;45.566;9.382;2023-02-01T15:55:02;3.80;;;2.88;;
39448;SDS011;25151;45.566;9.382;2023-02-01T15:58:06;4.43;;;3.13;;
39448;SDS011;25151;45.566;9.382;2023-02-01T16:01:14;4.78;;;2.95;;
39448;SDS011;25151;45.566;9.382;2023-02-01T16:07:28;4.53;;;3.08;;
39448;SDS011;25151;45.566;9.382;2023-02-01T16:10:37;6.40;;;3.22;;
39448;SDS011;25151;45.566;9.382;2023-02-01T16:13:41;4.85;;;2.85;;
39448;SDS011;25151;45.566;9.382;2023-02-01T16:16:42;3.75;;;2.97;;
39448;SDS011;25151;45.566;9.382;2023-02-01T16:19:42;4.50;;;2.92;;
39448;SDS011;25151;45.566;9.382;2023-02-01T16:22:43;3.90;;;3.20;;
39448;SDS011;25151;45.566;9.382;2023-02-01T16:25:44;5.50;;;3.40;;
39448;SDS011;25151;45.566;9.382;2023-02-01T16:28:45;4.90;;;3.10;;
39448;SDS011;25151;45.566;9.382;2023-02-01T16:31:45;5.40;;;2.95;;
39448;SDS011;25151;45.566;9.382;2023-02-01T16:34:48;5.63;;;2.88;;
39448;SDS011;25151;45.566;9.382;2023-02-01T16:37:49;3.70;;;2.85;;
39448;SDS011;25151;45.566;9.382;2023-02-01T16:40:50;5.05;;;3.13;;
39448;SDS011;25151;45.566;9.382;2023-02-01T16:43:51;4.85;;;2.92;;
39448;SDS011;25151;45.566;9.382;2023-02-01T16:46:53;5.20;;;3.15;;
39448;SDS011;25151;45.566;9.382;2023-02-01T16:49:54;5.15;;;3.33;;
39448;SDS011;25151;45.566;9.382;2023-02-01T16:52:55;5.18;;;3.10;;
39448;SDS011;25151;45.566;9.382;2023-02-01T16:55:55;4.68;;;2.92;;
39448;SDS011;25151;45.566;9.382;2023-02-01T16:59:02;8.13;;;2.97;;
39448;SDS011;25151;45.566;9.382;2023-02-01T17:02:03;5.47;;;2.65;;
39448;SDS011;25151;45.566;9.382;2023-02-01T17:05:04;4.68;;;3.15;;
39448;SDS011;25151;45.566;9.382;2023-02-01T17:08:06;4.68;;;3.13;;
39448;SDS011;25151;45.566;9.382;2023-02-01T17:11:09;5.00;;;2.60;;
39448;SDS011;25151;45.566;9.382;2023-02-01T17:14:19;5.00;;;2.85;;
39448;SDS011;25151;45.566;9.382;2023-02-01T17:17:21;5.32;;;2.60;;
39448;SDS011;25151;45.566;9.382;2023-02-01T17:20:23;5.05;;;3.10;;
39448;SDS011;25151;45.566;9.382;2023-02-01T17:23:27;4.50;;;3.10;;
39448;SDS011;25151;45.566;9.382;2023-02-01T17:26:29;4.10;;;2.70;;
39448;SDS011;25151;45.566;9.382;2023-02-01T17:29:29;5.00;;;3.03;;
39448;SDS011;25151;45.566;9.382;2023-02-01T17:32:30;4.30;;;2.97;;
39448;SDS011;25151;45.566;9.382;2023-02-01T17:35:30;5.38;;;2.88;;
39448;SDS011;25151;45.566;9.382;2023-02-01T17:38:31;5.97;;;3.40;;
39448;SDS011;25151;45.566;9.382;2023-02-01T17:41:33;5.30;;;2.97;;
39448;SDS011;25151;45.566;9.382;2023-02-01T17:44:35;5.18;;;3.22;;
39448;SDS011;25151;45.566;9.382;2023-02-01T17:47:36;6.03;;;2.95;;
39448;SDS011;25151;45.566;9.382;2023-02-01T17:50:37;4.70;;;2.88;;
39448;SDS011;25151;45.566;9.382;2023-02-01T17:53:38;5.00;;;2.67;;
39448;SDS011;25151;45.566;9.382;2023-02-01T17:56:39;4.90;;;3.00;;
39448;SDS011;25151;45.566;9.382;2023-02-01T17:59:40;4.78;;;2.70;;
39448;SDS011;25151;45.566;9.382;2023-02-01T18:02:40;5.00;;;2.80;;
39448;SDS011;25151;45.566;9.382;2023-02-01T18:05:41;5.38;;;2.60;;
39448;SDS011;25151;45.566;9.382;2023-02-01T18:08:43;6.45;;;2.72;;
39448;SDS011;25151;45.566;9.382;2023-02-01T18:11:45;5.47;;;3.35;;
39448;SDS011;25151;45.566;9.382;2023-02-01T18:14:45;5.90;;;3.13;;
39448;SDS011;25151;45.566;9.382;2023-02-01T18:17:46;6.07;;;3.10;;
39448;SDS011;25151;45.566;9.382;2023-02-01T18:20:47;6.97;;;3.67;;
39448;SDS011;25151;45.566;9.382;2023-02-01T18:23:49;5.53;;;3.00;;
39448;SDS011;25151;45.566;9.382;2023-02-01T18:26:49;7.13;;;3.45;;
39448;SDS011;25151;45.566;9.382;2023-02-01T18:29:51;6.20;;;3.15;;
39448;SDS011;25151;45.566;9.382;2023-02-01T18:32:51;8.13;;;3.35;;
39448;SDS011;25151;45.566;9.382;2023-02-01T18:35:52;6.10;;;3.30;;
39448;SDS011;25151;45.566;9.382;2023-02-01T18:38:52;6.80;;;4.07;;
39448;SDS011;25151;45.566;9.382;2023-02-01T18:41:55;7.15;;;3.40;;
39448;SDS011;25151;45.566;9.382;2023-02-01T18:44:56;5.10;;;3.08;;
39448;SDS011;25151;45.566;9.382;2023-02-01T18:47:57;4.55;;;3.20;;
39448;SDS011;25151;45.566;9.382;2023-02-01T18:51:01;10.63;;;3.95;;
39448;SDS011;25151;45.566;9.382;2023-02-01T18:54:02;8.30;;;3.90;;
39448;SDS011;25151;45.566;9.382;2023-02-01T18:57:02;4.93;;;3.17;;
39448;SDS011;25151;45.566;9.382;2023-02-01T19:00:04;4.40;;;2.97;;
39448;SDS011;25151;45.566;9.382;2023-02-01T19:03:08;6.32;;;3.10;;
39448;SDS011;25151;45.566;9.382;2023-02-01T19:06:10;6.53;;;3.40;;
39448;SDS011;25151;45.566;9.382;2023-02-01T19:09:11;9.23;;;3.55;;
39448;SDS011;25151;45.566;9.382;2023-02-01T19:12:12;7.82;;;3.15;;
39448;SDS011;25151;45.566;9.382;2023-02-01T19:15:12;8.38;;;3.17;;
39448;SDS011;25151;45.566;9.382;2023-02-01T19:18:14;5.90;;;3.75;;
39448;SDS011;25151;45.566;9.382;2023-02-01T19:21:19;7.13;;;3.15;;
39448;SDS011;25151;45.566;9.382;2023-02-01T19:24:24;5.68;;;3.40;;
39448;SDS011;25151;45.566;9.382;2023-02-01T19:27:27;7.07;;;3.33;;
39448;SDS011;25151;45.566;9.382;2023-02-01T19:30:27;7.13;;;3.20;;
39448;SDS011;25151;45.566;9.382;2023-02-01T19:33:28;6.03;;;3.60;;
39448;SDS011;25151;45.566;9.382;2023-02-01T19:36:29;4.07;;;2.30;;
39448;SDS011;25151;45.566;9.382;2023-02-01T19:39:29;5.00;;;3.13;;
39448;SDS011;25151;45.566;9.382;2023-02-01T19:42:30;7.13;;;3.75;;
39448;SDS011;25151;45.566;9.382;2023-02-01T19:45:31;7.70;;;3.25;;
39448;SDS011;25151;45.566;9.382;2023-02-01T19:48:32;7.00;;;3.55;;
39448;SDS011;25151;45.566;9.382;2023-02-01T19:51:34;6.93;;;3.25;;
39448;SDS011;25151;45.566;9.382;2023-02-01T19:54:34;5.60;;;3.35;;
39448;SDS011;25151;45.566;9.382;2023-02-01T19:57:35;6.00;;;2.78;;
39448;SDS011;25151;45.566;9.382;2023-02-01T20:00:36;6.18;;;2.80;;
39448;SDS011;25151;45.566;9.382;2023-02-01T20:03:36;6.10;;;3.20;;
39448;SDS011;25151;45.566;9.382;2023-02-01T20:06:40;6.82;;;3.75;;
39448;SDS011;25151;45.566;9.382;2023-02-01T20:09:50;4.68;;;3.00;;
39448;SDS011;25151;45.566;9.382;2023-02-01T20:12:55;5.00;;;2.72;;
39448;SDS011;25151;45.566;9.382;2023-02-01T20:15:56;5.97;;;3.35;;
39448;SDS011;25151;45.566;9.382;2023-02-01T20:18:59;5.07;;;3.08;;
39448;SDS011;25151;45.566;9.382;2023-02-01T20:22:00;5.60;;;3.35;;
39448;SDS011;25151;45.566;9.382;2023-02-01T20:25:00;5.45;;;3.20;;
39448;SDS011;25151;45.566;9.382;2023-02-01T20:28:03;4.35;;;2.58;;
39448;SDS011;25151;45.566;9.382;2023-02-01T20:31:05;7.55;;;3.22;;
39448;SDS011;25151;45.566;9.382;2023-02-01T20:34:06;6.47;;;3.05;;
39448;SDS011;25151;45.566;9.382;2023-02-01T20:37:09;4.20;;;2.85;;